Arverne, New York
Current Conditions -  °F | °C
As of 8:51 AM on Thursday 23 Oct 2014 (Local Time) from KJFK Reporting Station
Light Rain Light Rain  
Wind Chill: 11°   Ceiling: 2100
Heat Index: 11°   Visibility: 10mi
Dew Point:   Wind: 23mph
Humidity: 86%   Direction: 350°N
Pressure: 29.69"   Gusts: 30mph
Location:  40.59°N, 73.8°W
Report Text: KJFK 231251Z 35020G26KT 10SM -RA FEW013 BKN021 OVC080 11/08 A2969 RMK AO2 PK WND 34027/1241 SLP053 P0001 T01060083 $
Loading
Personal Weather Stations






























Interactive Weather Map
Tropical Storm Tracking
New forecast layout! Learn more

10-Day Weather Forecast

Advertisements
Track Severe Weather on mobile